sensor_id;sensor_type;location;lat;lon;timestamp;P1;durP1;ratioP1;P2;durP2;ratioP2
60588;SDS011;46421;48.610;9.334;2023-03-21T00:01:28;6.47;;;2.00;;
60588;SDS011;46421;48.610;9.334;2023-03-21T00:03:53;5.80;;;2.20;;
60588;SDS011;46421;48.610;9.334;2023-03-21T00:06:19;5.53;;;2.22;;
60588;SDS011;46421;48.610;9.334;2023-03-21T00:08:45;5.40;;;1.98;;
60588;SDS011;46421;48.610;9.334;2023-03-21T00:11:11;5.28;;;2.35;;
60588;SDS011;46421;48.610;9.334;2023-03-21T00:13:37;6.43;;;1.92;;
60588;SDS011;46421;48.610;9.334;2023-03-21T00:16:10;6.03;;;2.40;;
60588;SDS011;46421;48.610;9.334;2023-03-21T00:18:41;7.40;;;2.50;;
60588;SDS011;46421;48.610;9.334;2023-03-21T00:21:07;7.32;;;2.53;;
60588;SDS011;46421;48.610;9.334;2023-03-21T00:23:35;5.15;;;2.05;;
60588;SDS011;46421;48.610;9.334;2023-03-21T00:26:00;5.03;;;1.95;;
60588;SDS011;46421;48.610;9.334;2023-03-21T00:28:26;5.43;;;2.13;;
60588;SDS011;46421;48.610;9.334;2023-03-21T00:30:58;7.05;;;2.47;;
60588;SDS011;46421;48.610;9.334;2023-03-21T00:33:24;6.30;;;2.97;;
60588;SDS011;46421;48.610;9.334;2023-03-21T00:35:51;5.68;;;2.80;;
60588;SDS011;46421;48.610;9.334;2023-03-21T00:38:17;5.43;;;2.50;;
60588;SDS011;46421;48.610;9.334;2023-03-21T00:40:44;9.80;;;3.15;;
60588;SDS011;46421;48.610;9.334;2023-03-21T00:43:10;5.38;;;2.20;;
60588;SDS011;46421;48.610;9.334;2023-03-21T00:45:43;5.60;;;2.67;;
60588;SDS011;46421;48.610;9.334;2023-03-21T00:48:09;4.53;;;1.90;;
60588;SDS011;46421;48.610;9.334;2023-03-21T00:50:35;5.03;;;2.57;;
60588;SDS011;46421;48.610;9.334;2023-03-21T00:53:02;5.93;;;2.55;;
60588;SDS011;46421;48.610;9.334;2023-03-21T00:55:28;5.40;;;2.78;;
60588;SDS011;46421;48.610;9.334;2023-03-21T00:57:53;5.47;;;2.40;;
60588;SDS011;46421;48.610;9.334;2023-03-21T01:00:18;6.20;;;2.40;;
60588;SDS011;46421;48.610;9.334;2023-03-21T01:02:44;5.88;;;2.47;;
60588;SDS011;46421;48.610;9.334;2023-03-21T01:05:32;6.97;;;3.10;;
60588;SDS011;46421;48.610;9.334;2023-03-21T01:08:18;6.28;;;2.78;;
60588;SDS011;46421;48.610;9.334;2023-03-21T01:10:45;6.35;;;2.58;;
60588;SDS011;46421;48.610;9.334;2023-03-21T01:13:13;6.40;;;2.65;;
60588;SDS011;46421;48.610;9.334;2023-03-21T01:15:44;6.55;;;3.10;;
60588;SDS011;46421;48.610;9.334;2023-03-21T01:18:12;6.43;;;2.80;;
60588;SDS011;46421;48.610;9.334;2023-03-21T01:20:41;5.45;;;2.67;;
60588;SDS011;46421;48.610;9.334;2023-03-21T01:23:08;6.28;;;2.63;;
60588;SDS011;46421;48.610;9.334;2023-03-21T01:25:34;6.75;;;2.88;;
60588;SDS011;46421;48.610;9.334;2023-03-21T01:27:59;6.03;;;2.83;;
60588;SDS011;46421;48.610;9.334;2023-03-21T01:30:24;8.27;;;3.07;;
60588;SDS011;46421;48.610;9.334;2023-03-21T01:32:50;6.30;;;3.17;;
60588;SDS011;46421;48.610;9.334;2023-03-21T01:35:16;6.47;;;2.55;;
60588;SDS011;46421;48.610;9.334;2023-03-21T01:37:42;5.17;;;2.60;;
60588;SDS011;46421;48.610;9.334;2023-03-21T01:40:08;6.43;;;2.70;;
60588;SDS011;46421;48.610;9.334;2023-03-21T01:42:40;6.97;;;2.58;;
60588;SDS011;46421;48.610;9.334;2023-03-21T01:45:57;6.88;;;2.90;;
60588;SDS011;46421;48.610;9.334;2023-03-21T01:48:10;7.05;;;2.83;;
60588;SDS011;46421;48.610;9.334;2023-03-21T01:50:35;5.80;;;2.60;;
60588;SDS011;46421;48.610;9.334;2023-03-21T01:53:01;5.60;;;2.53;;
60588;SDS011;46421;48.610;9.334;2023-03-21T01:57:53;6.13;;;3.10;;
60588;SDS011;46421;48.610;9.334;2023-03-21T02:00:20;6.85;;;2.42;;
60588;SDS011;46421;48.610;9.334;2023-03-21T02:02:49;6.97;;;2.30;;
60588;SDS011;46421;48.610;9.334;2023-03-21T02:05:23;5.82;;;2.38;;
60588;SDS011;46421;48.610;9.334;2023-03-21T02:07:54;4.85;;;2.05;;
60588;SDS011;46421;48.610;9.334;2023-03-21T02:10:20;4.63;;;1.92;;
60588;SDS011;46421;48.610;9.334;2023-03-21T02:12:46;5.30;;;2.03;;
60588;SDS011;46421;48.610;9.334;2023-03-21T02:15:12;4.47;;;2.22;;
60588;SDS011;46421;48.610;9.334;2023-03-21T02:17:42;6.82;;;2.55;;
60588;SDS011;46421;48.610;9.334;2023-03-21T02:25:58;6.05;;;2.25;;
60588;SDS011;46421;48.610;9.334;2023-03-21T02:36:29;5.68;;;2.42;;
60588;SDS011;46421;48.610;9.334;2023-03-21T02:39:18;5.90;;;2.38;;
60588;SDS011;46421;48.610;9.334;2023-03-21T02:47:40;5.47;;;2.13;;
60588;SDS011;46421;48.610;9.334;2023-03-21T02:50:13;5.93;;;2.60;;
60588;SDS011;46421;48.610;9.334;2023-03-21T02:52:46;6.43;;;2.78;;
60588;SDS011;46421;48.610;9.334;2023-03-21T02:55:14;6.22;;;2.28;;
60588;SDS011;46421;48.610;9.334;2023-03-21T02:57:43;5.82;;;2.38;;
60588;SDS011;46421;48.610;9.334;2023-03-21T03:00:12;6.25;;;2.42;;
60588;SDS011;46421;48.610;9.334;2023-03-21T03:02:43;5.43;;;2.33;;
60588;SDS011;46421;48.610;9.334;2023-03-21T03:05:12;5.38;;;2.17;;
60588;SDS011;46421;48.610;9.334;2023-03-21T03:07:43;5.40;;;2.40;;
60588;SDS011;46421;48.610;9.334;2023-03-21T03:10:30;6.68;;;2.60;;
60588;SDS011;46421;48.610;9.334;2023-03-21T03:26:24;4.80;;;2.17;;
60588;SDS011;46421;48.610;9.334;2023-03-21T03:28:54;5.63;;;2.28;;
60588;SDS011;46421;48.610;9.334;2023-03-21T03:31:24;4.55;;;2.17;;
60588;SDS011;46421;48.610;9.334;2023-03-21T03:33:55;5.63;;;2.13;;
60588;SDS011;46421;48.610;9.334;2023-03-21T03:36:26;4.75;;;2.13;;
60588;SDS011;46421;48.610;9.334;2023-03-21T03:38:58;6.00;;;2.20;;
60588;SDS011;46421;48.610;9.334;2023-03-21T03:41:26;4.80;;;2.40;;
60588;SDS011;46421;48.610;9.334;2023-03-21T03:43:54;6.80;;;2.40;;
60588;SDS011;46421;48.610;9.334;2023-03-21T03:46:31;6.00;;;2.05;;
60588;SDS011;46421;48.610;9.334;2023-03-21T03:49:06;4.53;;;2.03;;
60588;SDS011;46421;48.610;9.334;2023-03-21T03:51:36;6.13;;;2.38;;
60588;SDS011;46421;48.610;9.334;2023-03-21T03:54:09;3.88;;;1.70;;
60588;SDS011;46421;48.610;9.334;2023-03-21T03:56:37;3.40;;;1.70;;
60588;SDS011;46421;48.610;9.334;2023-03-21T03:59:04;5.32;;;1.98;;
60588;SDS011;46421;48.610;9.334;2023-03-21T04:03:56;4.18;;;2.00;;
60588;SDS011;46421;48.610;9.334;2023-03-21T04:06:22;5.03;;;1.90;;
60588;SDS011;46421;48.610;9.334;2023-03-21T04:08:48;5.95;;;2.25;;
60588;SDS011;46421;48.610;9.334;2023-03-21T04:11:14;4.20;;;1.80;;
60588;SDS011;46421;48.610;9.334;2023-03-21T04:13:40;6.22;;;2.58;;
60588;SDS011;46421;48.610;9.334;2023-03-21T04:16:06;3.97;;;1.58;;
60588;SDS011;46421;48.610;9.334;2023-03-21T04:18:32;4.55;;;1.98;;
60588;SDS011;46421;48.610;9.334;2023-03-21T04:20:58;4.65;;;2.33;;
60588;SDS011;46421;48.610;9.334;2023-03-21T04:23:23;4.85;;;1.85;;
60588;SDS011;46421;48.610;9.334;2023-03-21T04:25:49;4.75;;;2.40;;
60588;SDS011;46421;48.610;9.334;2023-03-21T04:28:15;4.90;;;2.22;;
60588;SDS011;46421;48.610;9.334;2023-03-21T04:30:40;4.65;;;1.80;;
60588;SDS011;46421;48.610;9.334;2023-03-21T04:33:06;4.55;;;1.80;;
60588;SDS011;46421;48.610;9.334;2023-03-21T04:35:31;4.47;;;1.90;;
60588;SDS011;46421;48.610;9.334;2023-03-21T04:37:58;5.80;;;2.42;;
60588;SDS011;46421;48.610;9.334;2023-03-21T04:40:24;5.22;;;2.13;;
60588;SDS011;46421;48.610;9.334;2023-03-21T04:42:49;5.88;;;2.20;;
60588;SDS011;46421;48.610;9.334;2023-03-21T04:45:15;5.15;;;1.98;;
60588;SDS011;46421;48.610;9.334;2023-03-21T04:47:40;4.47;;;1.95;;
60588;SDS011;46421;48.610;9.334;2023-03-21T04:50:07;5.35;;;2.10;;
60588;SDS011;46421;48.610;9.334;2023-03-21T04:54:59;5.30;;;1.98;;
60588;SDS011;46421;48.610;9.334;2023-03-21T04:57:26;4.75;;;1.60;;
60588;SDS011;46421;48.610;9.334;2023-03-21T04:59:51;3.80;;;1.73;;
60588;SDS011;46421;48.610;9.334;2023-03-21T05:02:16;6.30;;;2.10;;
60588;SDS011;46421;48.610;9.334;2023-03-21T05:04:42;4.97;;;1.63;;
60588;SDS011;46421;48.610;9.334;2023-03-21T05:07:07;4.75;;;1.98;;
60588;SDS011;46421;48.610;9.334;2023-03-21T05:09:32;4.93;;;1.63;;
60588;SDS011;46421;48.610;9.334;2023-03-21T05:11:58;5.75;;;1.85;;
60588;SDS011;46421;48.610;9.334;2023-03-21T05:14:24;4.73;;;1.93;;
60588;SDS011;46421;48.610;9.334;2023-03-21T05:16:50;6.13;;;2.03;;
60588;SDS011;46421;48.610;9.334;2023-03-21T05:19:24;4.63;;;1.48;;
60588;SDS011;46421;48.610;9.334;2023-03-21T05:22:05;4.25;;;1.77;;
60588;SDS011;46421;48.610;9.334;2023-03-21T05:24:32;3.80;;;1.63;;
60588;SDS011;46421;48.610;9.334;2023-03-21T05:26:58;3.90;;;1.55;;
60588;SDS011;46421;48.610;9.334;2023-03-21T05:29:31;3.90;;;1.73;;
60588;SDS011;46421;48.610;9.334;2023-03-21T05:31:58;4.97;;;1.65;;
60588;SDS011;46421;48.610;9.334;2023-03-21T05:34:25;4.13;;;1.50;;
60588;SDS011;46421;48.610;9.334;2023-03-21T05:36:51;6.45;;;1.88;;
60588;SDS011;46421;48.610;9.334;2023-03-21T05:39:17;4.00;;;1.73;;
60588;SDS011;46421;48.610;9.334;2023-03-21T05:41:43;6.07;;;2.28;;
60588;SDS011;46421;48.610;9.334;2023-03-21T05:44:09;4.03;;;1.70;;
60588;SDS011;46421;48.610;9.334;2023-03-21T05:46:34;3.80;;;1.95;;
60588;SDS011;46421;48.610;9.334;2023-03-21T05:48:59;4.80;;;1.90;;
60588;SDS011;46421;48.610;9.334;2023-03-21T05:51:25;6.47;;;2.15;;
60588;SDS011;46421;48.610;9.334;2023-03-21T05:53:50;3.93;;;1.87;;
60588;SDS011;46421;48.610;9.334;2023-03-21T05:56:16;4.30;;;1.80;;
60588;SDS011;46421;48.610;9.334;2023-03-21T05:58:41;4.60;;;1.80;;
60588;SDS011;46421;48.610;9.334;2023-03-21T06:01:09;4.65;;;1.70;;
60588;SDS011;46421;48.610;9.334;2023-03-21T06:03:35;5.15;;;1.92;;
60588;SDS011;46421;48.610;9.334;2023-03-21T06:06:00;4.50;;;1.65;;
60588;SDS011;46421;48.610;9.334;2023-03-21T06:08:27;3.97;;;1.90;;
60588;SDS011;46421;48.610;9.334;2023-03-21T06:10:53;5.78;;;1.58;;
60588;SDS011;46421;48.610;9.334;2023-03-21T06:13:19;4.20;;;1.88;;
60588;SDS011;46421;48.610;9.334;2023-03-21T06:15:45;4.50;;;1.65;;
60588;SDS011;46421;48.610;9.334;2023-03-21T06:18:10;5.15;;;1.50;;
60588;SDS011;46421;48.610;9.334;2023-03-21T06:20:36;4.90;;;1.60;;
60588;SDS011;46421;48.610;9.334;2023-03-21T06:23:01;5.20;;;1.85;;
60588;SDS011;46421;48.610;9.334;2023-03-21T06:25:27;4.57;;;1.70;;
60588;SDS011;46421;48.610;9.334;2023-03-21T06:27:52;4.17;;;1.70;;
60588;SDS011;46421;48.610;9.334;2023-03-21T06:30:17;4.67;;;2.07;;
60588;SDS011;46421;48.610;9.334;2023-03-21T06:32:43;4.25;;;2.10;;
60588;SDS011;46421;48.610;9.334;2023-03-21T06:35:08;4.60;;;1.83;;
60588;SDS011;46421;48.610;9.334;2023-03-21T06:37:34;7.57;;;2.35;;
60588;SDS011;46421;48.610;9.334;2023-03-21T06:39:59;5.80;;;2.10;;
60588;SDS011;46421;48.610;9.334;2023-03-21T06:42:25;5.32;;;2.00;;
60588;SDS011;46421;48.610;9.334;2023-03-21T06:44:50;4.78;;;1.83;;
60588;SDS011;46421;48.610;9.334;2023-03-21T06:47:15;5.10;;;1.90;;
60588;SDS011;46421;48.610;9.334;2023-03-21T06:49:41;5.57;;;2.20;;
60588;SDS011;46421;48.610;9.334;2023-03-21T06:52:08;4.80;;;2.10;;
60588;SDS011;46421;48.610;9.334;2023-03-21T06:54:33;5.38;;;1.88;;
60588;SDS011;46421;48.610;9.334;2023-03-21T06:56:59;3.80;;;1.73;;
60588;SDS011;46421;48.610;9.334;2023-03-21T06:59:24;4.93;;;2.22;;
60588;SDS011;46421;48.610;9.334;2023-03-21T07:01:49;5.15;;;1.92;;
60588;SDS011;46421;48.610;9.334;2023-03-21T07:04:15;7.35;;;2.22;;
60588;SDS011;46421;48.610;9.334;2023-03-21T07:06:40;4.67;;;2.00;;
60588;SDS011;46421;48.610;9.334;2023-03-21T07:09:06;5.38;;;2.20;;
60588;SDS011;46421;48.610;9.334;2023-03-21T07:11:32;5.70;;;2.42;;
60588;SDS011;46421;48.610;9.334;2023-03-21T07:14:00;6.70;;;2.38;;
60588;SDS011;46421;48.610;9.334;2023-03-21T07:16:25;5.15;;;2.50;;
60588;SDS011;46421;48.610;9.334;2023-03-21T07:18:50;4.38;;;2.05;;
60588;SDS011;46421;48.610;9.334;2023-03-21T07:21:16;6.25;;;2.50;;
60588;SDS011;46421;48.610;9.334;2023-03-21T07:23:41;6.03;;;2.15;;
60588;SDS011;46421;48.610;9.334;2023-03-21T07:26:07;5.00;;;2.47;;
60588;SDS011;46421;48.610;9.334;2023-03-21T07:28:32;5.18;;;2.55;;
60588;SDS011;46421;48.610;9.334;2023-03-21T07:31:02;5.88;;;2.58;;
60588;SDS011;46421;48.610;9.334;2023-03-21T07:33:29;5.78;;;2.75;;
60588;SDS011;46421;48.610;9.334;2023-03-21T07:35:55;7.32;;;2.85;;
60588;SDS011;46421;48.610;9.334;2023-03-21T07:38:24;5.07;;;2.70;;
60588;SDS011;46421;48.610;9.334;2023-03-21T07:40:51;7.78;;;2.65;;
60588;SDS011;46421;48.610;9.334;2023-03-21T07:43:17;6.70;;;2.63;;
60588;SDS011;46421;48.610;9.334;2023-03-21T07:45:43;5.65;;;2.67;;
60588;SDS011;46421;48.610;9.334;2023-03-21T07:48:09;5.65;;;2.83;;
60588;SDS011;46421;48.610;9.334;2023-03-21T07:50:37;4.53;;;2.20;;
60588;SDS011;46421;48.610;9.334;2023-03-21T07:53:03;6.45;;;2.80;;
60588;SDS011;46421;48.610;9.334;2023-03-21T07:55:28;5.00;;;2.50;;
60588;SDS011;46421;48.610;9.334;2023-03-21T07:57:53;8.38;;;2.88;;
60588;SDS011;46421;48.610;9.334;2023-03-21T08:00:19;5.53;;;2.80;;
60588;SDS011;46421;48.610;9.334;2023-03-21T08:02:49;7.47;;;2.30;;
60588;SDS011;46421;48.610;9.334;2023-03-21T08:05:19;6.35;;;2.85;;
60588;SDS011;46421;48.610;9.334;2023-03-21T08:07:45;5.22;;;2.50;;
60588;SDS011;46421;48.610;9.334;2023-03-21T08:10:11;5.95;;;2.85;;
60588;SDS011;46421;48.610;9.334;2023-03-21T08:12:37;5.50;;;2.50;;
60588;SDS011;46421;48.610;9.334;2023-03-21T08:15:02;4.95;;;2.65;;
60588;SDS011;46421;48.610;9.334;2023-03-21T08:17:28;5.10;;;2.40;;
60588;SDS011;46421;48.610;9.334;2023-03-21T08:19:53;5.60;;;2.78;;
60588;SDS011;46421;48.610;9.334;2023-03-21T08:22:18;5.57;;;2.30;;
60588;SDS011;46421;48.610;9.334;2023-03-21T08:24:44;5.85;;;2.75;;
60588;SDS011;46421;48.610;9.334;2023-03-21T08:27:09;5.47;;;2.40;;
60588;SDS011;46421;48.610;9.334;2023-03-21T08:29:34;4.57;;;2.47;;
60588;SDS011;46421;48.610;9.334;2023-03-21T08:32:04;4.15;;;2.35;;
60588;SDS011;46421;48.610;9.334;2023-03-21T08:34:30;4.43;;;2.47;;
60588;SDS011;46421;48.610;9.334;2023-03-21T08:36:55;4.88;;;2.10;;
60588;SDS011;46421;48.610;9.334;2023-03-21T08:39:21;5.40;;;2.40;;
60588;SDS011;46421;48.610;9.334;2023-03-21T08:41:48;4.75;;;2.30;;
60588;SDS011;46421;48.610;9.334;2023-03-21T08:44:13;7.15;;;3.10;;
60588;SDS011;46421;48.610;9.334;2023-03-21T08:46:40;5.93;;;2.17;;
60588;SDS011;46421;48.610;9.334;2023-03-21T08:49:06;4.53;;;2.22;;
60588;SDS011;46421;48.610;9.334;2023-03-21T08:51:31;5.85;;;2.25;;
60588;SDS011;46421;48.610;9.334;2023-03-21T08:53:58;5.68;;;2.38;;
60588;SDS011;46421;48.610;9.334;2023-03-21T08:56:24;5.13;;;2.53;;
60588;SDS011;46421;48.610;9.334;2023-03-21T08:58:49;5.18;;;2.20;;
60588;SDS011;46421;48.610;9.334;2023-03-21T09:01:15;6.30;;;2.60;;
60588;SDS011;46421;48.610;9.334;2023-03-21T09:03:40;6.80;;;2.38;;
60588;SDS011;46421;48.610;9.334;2023-03-21T09:06:07;5.82;;;2.55;;
60588;SDS011;46421;48.610;9.334;2023-03-21T09:08:36;4.10;;;1.77;;
60588;SDS011;46421;48.610;9.334;2023-03-21T09:13:27;4.07;;;1.80;;
60588;SDS011;46421;48.610;9.334;2023-03-21T09:15:53;4.88;;;1.80;;
60588;SDS011;46421;48.610;9.334;2023-03-21T09:18:19;4.60;;;1.70;;
60588;SDS011;46421;48.610;9.334;2023-03-21T09:20:47;4.18;;;2.00;;
60588;SDS011;46421;48.610;9.334;2023-03-21T09:23:14;4.65;;;1.85;;
60588;SDS011;46421;48.610;9.334;2023-03-21T09:25:40;5.18;;;2.15;;
60588;SDS011;46421;48.610;9.334;2023-03-21T09:30:32;4.43;;;1.95;;
60588;SDS011;46421;48.610;9.334;2023-03-21T09:32:59;4.10;;;2.08;;
60588;SDS011;46421;48.610;9.334;2023-03-21T09:35:26;4.13;;;1.83;;
60588;SDS011;46421;48.610;9.334;2023-03-21T09:37:52;3.95;;;1.75;;
60588;SDS011;46421;48.610;9.334;2023-03-21T09:40:19;4.13;;;1.80;;
60588;SDS011;46421;48.610;9.334;2023-03-21T09:51:12;4.78;;;2.00;;
60588;SDS011;46421;48.610;9.334;2023-03-21T09:53:41;4.43;;;1.70;;
60588;SDS011;46421;48.610;9.334;2023-03-21T09:56:10;4.75;;;1.60;;
60588;SDS011;46421;48.610;9.334;2023-03-21T09:58:42;4.25;;;1.58;;
60588;SDS011;46421;48.610;9.334;2023-03-21T10:01:18;4.47;;;1.83;;
60588;SDS011;46421;48.610;9.334;2023-03-21T10:03:52;2.97;;;1.42;;
60588;SDS011;46421;48.610;9.334;2023-03-21T10:06:21;4.72;;;1.55;;
60588;SDS011;46421;48.610;9.334;2023-03-21T10:08:52;4.03;;;1.50;;
60588;SDS011;46421;48.610;9.334;2023-03-21T10:11:26;4.30;;;1.77;;
60588;SDS011;46421;48.610;9.334;2023-03-21T10:14:01;3.47;;;1.52;;
60588;SDS011;46421;48.610;9.334;2023-03-21T10:16:35;2.85;;;1.20;;
60588;SDS011;46421;48.610;9.334;2023-03-21T10:19:12;3.33;;;1.23;;
60588;SDS011;46421;48.610;9.334;2023-03-21T10:21:40;2.85;;;1.20;;
60588;SDS011;46421;48.610;9.334;2023-03-21T10:24:11;2.25;;;0.90;;
60588;SDS011;46421;48.610;9.334;2023-03-21T10:26:39;3.78;;;1.38;;
60588;SDS011;46421;48.610;9.334;2023-03-21T10:29:06;3.58;;;1.10;;
60588;SDS011;46421;48.610;9.334;2023-03-21T10:31:36;2.70;;;1.10;;
60588;SDS011;46421;48.610;9.334;2023-03-21T10:34:03;3.08;;;1.05;;
60588;SDS011;46421;48.610;9.334;2023-03-21T10:36:36;2.72;;;1.35;;
60588;SDS011;46421;48.610;9.334;2023-03-21T10:39:03;2.80;;;1.20;;
60588;SDS011;46421;48.610;9.334;2023-03-21T10:41:31;2.03;;;1.00;;
60588;SDS011;46421;48.610;9.334;2023-03-21T10:44:08;2.83;;;1.20;;
60588;SDS011;46421;48.610;9.334;2023-03-21T10:46:36;3.47;;;1.20;;
60588;SDS011;46421;48.610;9.334;2023-03-21T10:51:30;2.20;;;1.10;;
60588;SDS011;46421;48.610;9.334;2023-03-21T10:54:11;3.97;;;1.52;;
60588;SDS011;46421;48.610;9.334;2023-03-21T10:56:43;4.25;;;1.35;;
60588;SDS011;46421;48.610;9.334;2023-03-21T10:59:19;1.92;;;0.93;;
60588;SDS011;46421;48.610;9.334;2023-03-21T11:01:50;2.55;;;1.02;;
60588;SDS011;46421;48.610;9.334;2023-03-21T11:04:28;3.67;;;1.25;;
60588;SDS011;46421;48.610;9.334;2023-03-21T11:06:58;2.92;;;1.05;;
60588;SDS011;46421;48.610;9.334;2023-03-21T11:09:43;2.10;;;1.00;;
60588;SDS011;46421;48.610;9.334;2023-03-21T11:12:14;2.75;;;1.20;;
60588;SDS011;46421;48.610;9.334;2023-03-21T11:14:42;2.00;;;0.93;;
60588;SDS011;46421;48.610;9.334;2023-03-21T11:19:50;2.90;;;1.25;;
60588;SDS011;46421;48.610;9.334;2023-03-21T11:22:24;2.70;;;1.02;;
60588;SDS011;46421;48.610;9.334;2023-03-21T11:25:00;3.88;;;1.15;;
60588;SDS011;46421;48.610;9.334;2023-03-21T11:27:27;2.58;;;1.02;;
60588;SDS011;46421;48.610;9.334;2023-03-21T11:29:54;2.42;;;1.10;;
60588;SDS011;46421;48.610;9.334;2023-03-21T11:32:23;3.35;;;1.05;;
60588;SDS011;46421;48.610;9.334;2023-03-21T11:34:52;2.45;;;1.10;;
60588;SDS011;46421;48.610;9.334;2023-03-21T11:37:38;3.63;;;1.25;;
60588;SDS011;46421;48.610;9.334;2023-03-21T11:40:23;4.93;;;1.75;;
60588;SDS011;46421;48.610;9.334;2023-03-21T11:42:57;3.47;;;1.25;;
60588;SDS011;46421;48.610;9.334;2023-03-21T11:45:23;3.72;;;1.00;;
60588;SDS011;46421;48.610;9.334;2023-03-21T11:47:50;3.35;;;1.33;;
60588;SDS011;46421;48.610;9.334;2023-03-21T11:50:30;2.53;;;1.02;;
60588;SDS011;46421;48.610;9.334;2023-03-21T11:53:04;2.28;;;0.75;;
60588;SDS011;46421;48.610;9.334;2023-03-21T11:55:38;3.70;;;1.40;;
60588;SDS011;46421;48.610;9.334;2023-03-21T12:03:39;3.78;;;1.70;;
60588;SDS011;46421;48.610;9.334;2023-03-21T12:06:11;4.80;;;1.20;;
60588;SDS011;46421;48.610;9.334;2023-03-21T12:08:52;3.00;;;1.20;;
60588;SDS011;46421;48.610;9.334;2023-03-21T12:14:21;3.95;;;1.10;;
60588;SDS011;46421;48.610;9.334;2023-03-21T12:17:09;3.33;;;0.95;;
60588;SDS011;46421;48.610;9.334;2023-03-21T12:25:15;3.10;;;1.30;;
60588;SDS011;46421;48.610;9.334;2023-03-21T12:27:56;4.22;;;1.75;;
60588;SDS011;46421;48.610;9.334;2023-03-21T12:41:23;3.58;;;1.20;;
60588;SDS011;46421;48.610;9.334;2023-03-21T12:52:05;3.15;;;1.27;;
60588;SDS011;46421;48.610;9.334;2023-03-21T12:57:05;3.25;;;1.40;;
60588;SDS011;46421;48.610;9.334;2023-03-21T13:02:49;3.80;;;1.40;;
60588;SDS011;46421;48.610;9.334;2023-03-21T13:05:21;2.65;;;1.13;;
60588;SDS011;46421;48.610;9.334;2023-03-21T13:08:02;2.92;;;1.20;;
60588;SDS011;46421;48.610;9.334;2023-03-21T13:10:31;3.25;;;1.13;;
60588;SDS011;46421;48.610;9.334;2023-03-21T13:13:01;4.45;;;1.40;;
60588;SDS011;46421;48.610;9.334;2023-03-21T13:21:21;3.80;;;1.33;;
60588;SDS011;46421;48.610;9.334;2023-03-21T13:23:59;3.03;;;1.00;;
60588;SDS011;46421;48.610;9.334;2023-03-21T13:26:36;2.47;;;1.30;;
60588;SDS011;46421;48.610;9.334;2023-03-21T13:29:14;6.13;;;1.83;;
60588;SDS011;46421;48.610;9.334;2023-03-21T13:31:47;4.75;;;1.63;;
60588;SDS011;46421;48.610;9.334;2023-03-21T13:34:14;3.95;;;1.45;;
60588;SDS011;46421;48.610;9.334;2023-03-21T13:36:40;3.10;;;1.27;;
60588;SDS011;46421;48.610;9.334;2023-03-21T13:39:17;3.80;;;1.60;;
60588;SDS011;46421;48.610;9.334;2023-03-21T13:41:45;3.97;;;1.50;;
60588;SDS011;46421;48.610;9.334;2023-03-21T13:44:37;4.35;;;1.52;;
60588;SDS011;46421;48.610;9.334;2023-03-21T13:55:39;3.22;;;1.25;;
60588;SDS011;46421;48.610;9.334;2023-03-21T13:58:52;4.63;;;1.50;;
60588;SDS011;46421;48.610;9.334;2023-03-21T14:06:41;4.95;;;1.58;;
60588;SDS011;46421;48.610;9.334;2023-03-21T14:09:18;4.05;;;1.38;;
60588;SDS011;46421;48.610;9.334;2023-03-21T14:11:47;4.90;;;1.95;;
60588;SDS011;46421;48.610;9.334;2023-03-21T14:14:16;4.18;;;1.80;;
60588;SDS011;46421;48.610;9.334;2023-03-21T14:16:43;3.38;;;1.48;;
60588;SDS011;46421;48.610;9.334;2023-03-21T14:19:09;4.38;;;1.30;;
60588;SDS011;46421;48.610;9.334;2023-03-21T14:21:36;4.13;;;1.48;;
60588;SDS011;46421;48.610;9.334;2023-03-21T14:24:03;3.38;;;1.25;;
60588;SDS011;46421;48.610;9.334;2023-03-21T14:26:32;3.05;;;1.40;;
60588;SDS011;46421;48.610;9.334;2023-03-21T14:29:01;3.53;;;1.50;;
60588;SDS011;46421;48.610;9.334;2023-03-21T14:31:31;2.75;;;1.20;;
60588;SDS011;46421;48.610;9.334;2023-03-21T14:33:57;3.30;;;1.20;;
60588;SDS011;46421;48.610;9.334;2023-03-21T14:36:26;3.88;;;1.00;;
60588;SDS011;46421;48.610;9.334;2023-03-21T14:38:56;3.50;;;1.20;;
60588;SDS011;46421;48.610;9.334;2023-03-21T14:41:52;4.25;;;1.48;;
60588;SDS011;46421;48.610;9.334;2023-03-21T14:44:23;4.05;;;1.42;;
60588;SDS011;46421;48.610;9.334;2023-03-21T14:47:04;3.03;;;1.15;;
60588;SDS011;46421;48.610;9.334;2023-03-21T14:49:33;4.15;;;1.45;;
60588;SDS011;46421;48.610;9.334;2023-03-21T14:52:01;2.70;;;1.02;;
60588;SDS011;46421;48.610;9.334;2023-03-21T14:54:30;2.60;;;1.00;;
60588;SDS011;46421;48.610;9.334;2023-03-21T14:57:00;2.58;;;0.82;;
60588;SDS011;46421;48.610;9.334;2023-03-21T14:59:29;4.03;;;1.10;;
60588;SDS011;46421;48.610;9.334;2023-03-21T15:01:58;3.17;;;1.23;;
60588;SDS011;46421;48.610;9.334;2023-03-21T15:04:27;4.43;;;1.10;;
60588;SDS011;46421;48.610;9.334;2023-03-21T15:06:56;4.32;;;1.20;;
60588;SDS011;46421;48.610;9.334;2023-03-21T15:11:56;2.88;;;0.90;;
60588;SDS011;46421;48.610;9.334;2023-03-21T15:16:50;3.35;;;0.90;;
60588;SDS011;46421;48.610;9.334;2023-03-21T15:19:17;3.08;;;0.90;;
60588;SDS011;46421;48.610;9.334;2023-03-21T15:21:48;2.70;;;0.80;;
60588;SDS011;46421;48.610;9.334;2023-03-21T15:24:19;2.05;;;0.73;;
60588;SDS011;46421;48.610;9.334;2023-03-21T15:26:49;1.35;;;0.73;;
60588;SDS011;46421;48.610;9.334;2023-03-21T15:29:17;2.70;;;0.93;;
60588;SDS011;46421;48.610;9.334;2023-03-21T15:31:45;1.92;;;0.65;;
60588;SDS011;46421;48.610;9.334;2023-03-21T15:34:16;1.70;;;0.63;;
60588;SDS011;46421;48.610;9.334;2023-03-21T15:36:47;2.13;;;0.70;;
60588;SDS011;46421;48.610;9.334;2023-03-21T15:39:18;1.60;;;0.80;;
60588;SDS011;46421;48.610;9.334;2023-03-21T15:41:55;2.13;;;0.70;;
60588;SDS011;46421;48.610;9.334;2023-03-21T15:44:26;2.38;;;0.80;;
60588;SDS011;46421;48.610;9.334;2023-03-21T15:46:52;1.63;;;0.70;;
60588;SDS011;46421;48.610;9.334;2023-03-21T15:52:05;2.10;;;0.70;;
60588;SDS011;46421;48.610;9.334;2023-03-21T15:54:49;2.83;;;0.80;;
60588;SDS011;46421;48.610;9.334;2023-03-21T15:57:23;2.35;;;0.90;;
60588;SDS011;46421;48.610;9.334;2023-03-21T16:00:37;2.08;;;0.80;;
60588;SDS011;46421;48.610;9.334;2023-03-21T16:02:50;2.63;;;0.90;;
60588;SDS011;46421;48.610;9.334;2023-03-21T16:05:25;1.67;;;0.70;;
60588;SDS011;46421;48.610;9.334;2023-03-21T16:07:56;2.92;;;0.68;;
60588;SDS011;46421;48.610;9.334;2023-03-21T16:10:34;2.03;;;0.73;;
60588;SDS011;46421;48.610;9.334;2023-03-21T16:13:01;2.35;;;0.70;;
60588;SDS011;46421;48.610;9.334;2023-03-21T16:15:27;2.00;;;0.80;;
60588;SDS011;46421;48.610;9.334;2023-03-21T16:17:54;2.53;;;0.70;;
60588;SDS011;46421;48.610;9.334;2023-03-21T16:20:22;1.33;;;0.50;;
60588;SDS011;46421;48.610;9.334;2023-03-21T16:22:49;1.35;;;0.50;;
60588;SDS011;46421;48.610;9.334;2023-03-21T16:25:15;1.88;;;0.90;;
60588;SDS011;46421;48.610;9.334;2023-03-21T16:27:41;2.33;;;0.50;;
60588;SDS011;46421;48.610;9.334;2023-03-21T16:30:08;3.20;;;0.63;;
60588;SDS011;46421;48.610;9.334;2023-03-21T16:32:35;1.95;;;0.70;;
60588;SDS011;46421;48.610;9.334;2023-03-21T16:35:01;1.73;;;1.00;;
60588;SDS011;46421;48.610;9.334;2023-03-21T16:37:33;0.85;;;0.50;;
60588;SDS011;46421;48.610;9.334;2023-03-21T16:39:59;2.33;;;0.90;;
60588;SDS011;46421;48.610;9.334;2023-03-21T16:42:25;2.00;;;0.70;;
60588;SDS011;46421;48.610;9.334;2023-03-21T16:44:50;1.83;;;0.70;;
60588;SDS011;46421;48.610;9.334;2023-03-21T16:47:19;3.97;;;1.30;;
60588;SDS011;46421;48.610;9.334;2023-03-21T16:49:47;2.70;;;1.08;;
60588;SDS011;46421;48.610;9.334;2023-03-21T16:52:13;3.17;;;1.20;;
60588;SDS011;46421;48.610;9.334;2023-03-21T16:54:39;6.70;;;1.70;;
60588;SDS011;46421;48.610;9.334;2023-03-21T16:57:06;5.38;;;1.60;;
60588;SDS011;46421;48.610;9.334;2023-03-21T16:59:33;3.90;;;1.20;;
60588;SDS011;46421;48.610;9.334;2023-03-21T17:01:59;4.90;;;1.48;;
60588;SDS011;46421;48.610;9.334;2023-03-21T17:04:26;4.05;;;1.35;;